Westview Chinook — VG3278 — position and weather

sailwx.info

Track history (hours):
 
Tides and Currents Weather Stations Pressure Air Temp Water Temp Dewpoint Dewpoint Depression Visibility Wind Speed Wind Dir Waves Ship Positions

Westview Chinook

Last reported at 2017-Sep-26 05:30 UTC. Time now 2017-Sep-26 05:57 UTC.
Position N 49°09' W 123°53'.

Length 15 m.

Type: Tug. MMSI: 316005622.

Date/timePositionNaut miles runAvg speedWind from/ knotsBaromVisibWave heightAir tempDewpointWater temp
2017-Sep-26 05:30N 49°09' W 123°53'2 4.8
2017-Sep-26 05:00N 49°12' W 123°53'5 9.6
2017-Sep-26 04:30N 49°13' W 123°46'5 9.8
2017-Sep-26 04:00N 49°14' W 123°38'5 9.5
2017-Sep-26 03:30N 49°14' W 123°31'5 9.5
2017-Sep-26 03:00N 49°15' W 123°24'4 8.9
2017-Sep-26 02:30N 49°16' W 123°17'4 8.6
2017-Sep-26 02:00N 49°13' W 123°12'3 5.1
2017-Sep-26 01:30N 49°12' W 123°08'0 0.0
2017-Sep-26 01:00N 49°12' W 123°08'1 2.9
2017-Sep-26 00:30N 49°12' W 123°06'0 0.0
2017-Sep-26 00:00N 49°12' W 123°06'3 6.0
2017-Sep-25 23:30N 49°13' W 123°11'3 6.7
2017-Sep-25 23:00N 49°15' W 123°15'3 6.1
2017-Sep-25 22:30N 49°12' W 123°18'5 9.0
2017-Sep-25 22:00N 49°08' W 123°19'1 2.9
2017-Sep-25 21:30N 49°07' W 123°17'4 7.8
2017-Sep-25 21:00N 49°07' W 123°12'4 8.1
2017-Sep-25 20:30N 49°07' W 123°05'4 7.8
2017-Sep-25 20:00N 49°09' W 123°01'3 6.5
2017-Sep-25 19:30N 49°10' W 122°56'3 6.2
2017-Sep-25 19:00N 49°13' W 122°53'2 4.7
2017-Sep-25 18:30N 49°13' W 122°50'2 4.2
2017-Sep-25 18:00N 49°13' W 122°53'4 8.6
2017-Sep-25 17:29N 49°09' W 122°57'2 3.9
2017-Sep-25 17:00N 49°09' W 123°00'1 1.5
2017-Sep-25 16:30N 49°09' W 123°01'1 2.3
2017-Sep-25 16:00N 49°08' W 123°03'3 5.8
2017-Sep-25 15:30N 49°10' W 122°58'1 2.4
2017-Sep-25 15:00N 49°09' W 123°00'1 1.5
2017-Sep-25 14:30N 49°09' W 123°01'4 8.7
2017-Sep-25 14:00N 49°07' W 123°07'3 6.7
2017-Sep-25 13:30N 49°07' W 123°12'4 8.1
2017-Sep-25 13:00N 49°06' W 123°18'4 8.8
2017-Sep-25 12:30N 49°07' W 123°24'5 9.2
2017-Sep-25 12:00N 49°09' W 123°31'5 9.4
2017-Sep-25 11:30N 49°10' W 123°38'5 9.4
2017-Sep-25 10:59N 49°11' W 123°45'5 9.5
2017-Sep-25 10:29N 49°12' W 123°52'3 6.5
2017-Sep-25 09:59N 49°09' W 123°53'0 0.1
2017-Sep-25 09:30N 49°09' W 123°53'1 3.0
2017-Sep-25 09:00N 49°10' W 123°53'3 5.3
2017-Sep-25 08:30N 49°12' W 123°50'4 7.1
2017-Sep-25 08:00N 49°11' W 123°45'4 7.2
2017-Sep-25 07:30N 49°10' W 123°39'4 7.0
2017-Sep-25 07:00N 49°09' W 123°34'4 7.1
2017-Sep-25 06:30N 49°08' W 123°29'3 6.8
2017-Sep-25 06:00N 49°07' W 123°24'3 6.8
2017-Sep-25 05:30N 49°06' W 123°19'4 7.4
2017-Sep-25 05:00N 49°08' W 123°14'4 7.3
2017-Sep-25 04:30N 49°07' W 123°09'3 6.8
2017-Sep-25 04:00N 49°08' W 123°04'3 6.6
2017-Sep-25 03:30N 49°09' W 123°00'3 6.0
2017-Sep-25 03:00N 49°10' W 122°56'2 4.2
2017-Sep-25 02:30N 49°12' W 122°54'2 3.9
2017-Sep-25 02:00N 49°13' W 122°51'1 2.0
2017-Sep-25 01:30N 49°13' W 122°50'0 0.2
2017-Sep-25 01:00N 49°13' W 122°50'0 0.4
2017-Sep-25 00:30N 49°13' W 122°50'3 5.1
2017-Sep-25 00:00N 49°13' W 122°53'0 0.3
2017-Sep-24 23:30N 49°13' W 122°54'1 2.1
2017-Sep-24 23:00N 49°13' W 122°52'0 0.6
2017-Sep-24 22:30N 49°13' W 122°52'3 5.9
2017-Sep-24 22:00N 49°11' W 122°55'1 1.6
2017-Sep-24 21:30N 49°12' W 122°54'1 1.7
2017-Sep-24 21:00N 49°11' W 122°55'2 3.1
2017-Sep-24 20:30N 49°11' W 122°58'2 4.5
2017-Sep-24 20:00N 49°12' W 123°01'4 7.2
2017-Sep-24 19:30N 49°12' W 123°06'1 2.4
2017-Sep-24 19:00N 49°12' W 123°08'0 0.1
2017-Sep-24 18:30N 49°12' W 123°08'1 2.8
2017-Sep-24 18:00N 49°12' W 123°06'0 0.0
2017-Sep-24 17:30N 49°12' W 123°06'1 3.0
2017-Sep-24 17:00N 49°12' W 123°08'2 4.5
2017-Sep-24 16:30N 49°13' W 123°11'2 4.6
2017-Sep-24 16:00N 49°14' W 123°14'2 4.5
2017-Sep-24 15:30N 49°16' W 123°17'2 4.1
2017-Sep-24 15:00N 49°17' W 123°15'3 5.4
2017-Sep-24 14:30N 49°17' W 123°11'1 2.9
2017-Sep-24 14:00N 49°18' W 123°10'4 7.2
2017-Sep-24 13:30N 49°18' W 123°04'2 3.5
2017-Sep-24 13:00N 49°18' W 123°02'0 0.0
2017-Sep-24 12:30N 49°18' W 123°02'0 0.0
2017-Sep-24 12:00N 49°18' W 123°02'0 0.0
2017-Sep-24 11:30N 49°18' W 123°02'0 0.0
2017-Sep-24 11:00N 49°18' W 123°02'0 0.0
2017-Sep-24 10:30N 49°18' W 123°02'2 3.6
2017-Sep-24 10:00N 49°18' W 123°05'4 7.3
2017-Sep-24 09:30N 49°18' W 123°10'0 0.8
2017-Sep-24 09:00N 49°17' W 123°10'2 3.7
2017-Sep-24 08:30N 49°19' W 123°08'3 5.6
2017-Sep-24 08:00N 49°17' W 123°04'2 3.6
2017-Sep-24 07:30N 49°18' W 123°07'4 8.5
2017-Sep-24 07:00N 49°18' W 123°13'4 7.1
2017-Sep-24 06:30N 49°15' W 123°15'510.3
2017-Sep-24 06:00N 49°12' W 123°09'4 8.5
2017-Sep-24 05:30N 49°12' W 123°02'4 7.4
2017-Sep-24 05:00N 49°12' W 122°57'2 4.4
2017-Sep-24 04:30N 49°13' W 122°53'2 4.1
2017-Sep-24 04:00N 49°11' W 122°55'3 5.9
2017-Sep-24 03:30N 49°09' W 122°59'3 6.4
2017-Sep-24 03:00N 49°08' W 123°04'3 6.2
2017-Sep-24 02:30N 49°07' W 123°08'3 5.8
2017-Sep-24 02:01N 49°07' W 123°12'2 4.9
2017-Sep-24 01:30N 49°07' W 123°16'3 5.3
2017-Sep-24 01:00N 49°06' W 123°19'3 5.6
2017-Sep-24 00:30N 49°08' W 123°22'3 6.4
2017-Sep-24 00:00N 49°11' W 123°25'3 6.6
2017-Sep-23 23:30N 49°13' W 123°29'3 6.1
2017-Sep-23 23:00N 49°15' W 123°32'3 5.9
2017-Sep-23 22:30N 49°17' W 123°35'3 6.3
2017-Sep-23 22:00N 49°20' W 123°38'3 5.8
2017-Sep-23 21:30N 49°22' W 123°40'3 5.9
2017-Sep-23 21:00N 49°25' W 123°43'3 6.0
2017-Sep-23 20:30N 49°27' W 123°45'1 1.5
2017-Sep-23 20:00N 49°28' W 123°45'38 0.9
2017-Sep-22 02:00N 49°13' W 122°51'1 2.2
2017-Sep-22 01:30N 49°13' W 122°50'3 6.0
2017-Sep-22 01:00N 49°12' W 122°54'0 0.0
2017-Sep-22 00:30N 49°12' W 122°54'2 5.0
2017-Sep-22 00:00N 49°11' W 122°58'1 2.9
2017-Sep-21 23:30N 49°12' W 122°55'1 1.8
2017-Sep-21 23:00N 49°11' W 122°55'0 0.0
2017-Sep-21 22:30N 49°11' W 122°55'1 2.5
2017-Sep-21 22:01N 49°12' W 122°56'3 5.0
2017-Sep-21 21:30N 49°12' W 123°00'3 5.7
2017-Sep-21 21:00N 49°12' W 123°04'2 4.7
2017-Sep-21 20:30N 49°12' W 123°08'0 0.2
2017-Sep-21 20:00N 49°12' W 123°08'0 0.1
2017-Sep-21 19:30N 49°12' W 123°08'0 0.0
2017-Sep-21 19:00N 49°12' W 123°08'0 0.1
2017-Sep-21 18:30N 49°12' W 123°08'0 0.0
2017-Sep-21 17:59N 49°12' W 123°08'0 0.0
2017-Sep-21 17:30N 49°12' W 123°08'  
Track history (hours):
 
Tides and Currents Weather Stations Pressure Air Temp Water Temp Dewpoint Dewpoint Depression Visibility Wind Speed Wind Dir Waves Ship Positions

Westview Chinook

Last reported at 2017-Sep-26 05:30 UTC. Time now 2017-Sep-26 05:57 UTC.
Position N 49°09' W 123°53'.

Length 15 m.

Type: Tug. MMSI: 316005622.

Date/timePositionNaut miles runAvg speedWind from/ knotsBaromVisibWave heightAir tempDewpointWater temp
2017-Sep-26 05:30N 49°09' W 123°53'2 4.8
2017-Sep-26 05:00N 49°12' W 123°53'5 9.6
2017-Sep-26 04:30N 49°13' W 123°46'5 9.8
2017-Sep-26 04:00N 49°14' W 123°38'5 9.5
2017-Sep-26 03:30N 49°14' W 123°31'5 9.5
2017-Sep-26 03:00N 49°15' W 123°24'4 8.9
2017-Sep-26 02:30N 49°16' W 123°17'4 8.6
2017-Sep-26 02:00N 49°13' W 123°12'3 5.1
2017-Sep-26 01:30N 49°12' W 123°08'0 0.0
2017-Sep-26 01:00N 49°12' W 123°08'1 2.9
2017-Sep-26 00:30N 49°12' W 123°06'0 0.0
2017-Sep-26 00:00N 49°12' W 123°06'3 6.0
2017-Sep-25 23:30N 49°13' W 123°11'3 6.7
2017-Sep-25 23:00N 49°15' W 123°15'3 6.1
2017-Sep-25 22:30N 49°12' W 123°18'5 9.0
2017-Sep-25 22:00N 49°08' W 123°19'1 2.9
2017-Sep-25 21:30N 49°07' W 123°17'4 7.8
2017-Sep-25 21:00N 49°07' W 123°12'4 8.1
2017-Sep-25 20:30N 49°07' W 123°05'4 7.8
2017-Sep-25 20:00N 49°09' W 123°01'3 6.5
2017-Sep-25 19:30N 49°10' W 122°56'3 6.2
2017-Sep-25 19:00N 49°13' W 122°53'2 4.7
2017-Sep-25 18:30N 49°13' W 122°50'2 4.2
2017-Sep-25 18:00N 49°13' W 122°53'4 8.6
2017-Sep-25 17:29N 49°09' W 122°57'2 3.9
2017-Sep-25 17:00N 49°09' W 123°00'1 1.5
2017-Sep-25 16:30N 49°09' W 123°01'1 2.3
2017-Sep-25 16:00N 49°08' W 123°03'3 5.8
2017-Sep-25 15:30N 49°10' W 122°58'1 2.4
2017-Sep-25 15:00N 49°09' W 123°00'1 1.5
2017-Sep-25 14:30N 49°09' W 123°01'4 8.7
2017-Sep-25 14:00N 49°07' W 123°07'3 6.7
2017-Sep-25 13:30N 49°07' W 123°12'4 8.1
2017-Sep-25 13:00N 49°06' W 123°18'4 8.8
2017-Sep-25 12:30N 49°07' W 123°24'5 9.2
2017-Sep-25 12:00N 49°09' W 123°31'5 9.4
2017-Sep-25 11:30N 49°10' W 123°38'5 9.4
2017-Sep-25 10:59N 49°11' W 123°45'5 9.5
2017-Sep-25 10:29N 49°12' W 123°52'3 6.5
2017-Sep-25 09:59N 49°09' W 123°53'0 0.1
2017-Sep-25 09:30N 49°09' W 123°53'1 3.0
2017-Sep-25 09:00N 49°10' W 123°53'3 5.3
2017-Sep-25 08:30N 49°12' W 123°50'4 7.1
2017-Sep-25 08:00N 49°11' W 123°45'4 7.2
2017-Sep-25 07:30N 49°10' W 123°39'4 7.0
2017-Sep-25 07:00N 49°09' W 123°34'4 7.1
2017-Sep-25 06:30N 49°08' W 123°29'3 6.8
2017-Sep-25 06:00N 49°07' W 123°24'3 6.8
2017-Sep-25 05:30N 49°06' W 123°19'4 7.4
2017-Sep-25 05:00N 49°08' W 123°14'4 7.3
2017-Sep-25 04:30N 49°07' W 123°09'3 6.8
2017-Sep-25 04:00N 49°08' W 123°04'3 6.6
2017-Sep-25 03:30N 49°09' W 123°00'3 6.0
2017-Sep-25 03:00N 49°10' W 122°56'2 4.2
2017-Sep-25 02:30N 49°12' W 122°54'2 3.9
2017-Sep-25 02:00N 49°13' W 122°51'1 2.0
2017-Sep-25 01:30N 49°13' W 122°50'0 0.2
2017-Sep-25 01:00N 49°13' W 122°50'0 0.4
2017-Sep-25 00:30N 49°13' W 122°50'3 5.1
2017-Sep-25 00:00N 49°13' W 122°53'0 0.3
2017-Sep-24 23:30N 49°13' W 122°54'1 2.1
2017-Sep-24 23:00N 49°13' W 122°52'0 0.6
2017-Sep-24 22:30N 49°13' W 122°52'3 5.9
2017-Sep-24 22:00N 49°11' W 122°55'1 1.6
2017-Sep-24 21:30N 49°12' W 122°54'1 1.7
2017-Sep-24 21:00N 49°11' W 122°55'2 3.1
2017-Sep-24 20:30N 49°11' W 122°58'2 4.5
2017-Sep-24 20:00N 49°12' W 123°01'4 7.2
2017-Sep-24 19:30N 49°12' W 123°06'1 2.4
2017-Sep-24 19:00N 49°12' W 123°08'0 0.1
2017-Sep-24 18:30N 49°12' W 123°08'1 2.8
2017-Sep-24 18:00N 49°12' W 123°06'0 0.0
2017-Sep-24 17:30N 49°12' W 123°06'1 3.0
2017-Sep-24 17:00N 49°12' W 123°08'2 4.5
2017-Sep-24 16:30N 49°13' W 123°11'2 4.6
2017-Sep-24 16:00N 49°14' W 123°14'2 4.5
2017-Sep-24 15:30N 49°16' W 123°17'2 4.1
2017-Sep-24 15:00N 49°17' W 123°15'3 5.4
2017-Sep-24 14:30N 49°17' W 123°11'1 2.9
2017-Sep-24 14:00N 49°18' W 123°10'4 7.2
2017-Sep-24 13:30N 49°18' W 123°04'2 3.5
2017-Sep-24 13:00N 49°18' W 123°02'0 0.0
2017-Sep-24 12:30N 49°18' W 123°02'0 0.0
2017-Sep-24 12:00N 49°18' W 123°02'0 0.0
2017-Sep-24 11:30N 49°18' W 123°02'0 0.0
2017-Sep-24 11:00N 49°18' W 123°02'0 0.0
2017-Sep-24 10:30N 49°18' W 123°02'2 3.6
2017-Sep-24 10:00N 49°18' W 123°05'4 7.3
2017-Sep-24 09:30N 49°18' W 123°10'0 0.8
2017-Sep-24 09:00N 49°17' W 123°10'2 3.7
2017-Sep-24 08:30N 49°19' W 123°08'3 5.6
2017-Sep-24 08:00N 49°17' W 123°04'2 3.6
2017-Sep-24 07:30N 49°18' W 123°07'4 8.5
2017-Sep-24 07:00N 49°18' W 123°13'4 7.1
2017-Sep-24 06:30N 49°15' W 123°15'510.3
2017-Sep-24 06:00N 49°12' W 123°09'4 8.5
2017-Sep-24 05:30N 49°12' W 123°02'4 7.4
2017-Sep-24 05:00N 49°12' W 122°57'2 4.4
2017-Sep-24 04:30N 49°13' W 122°53'2 4.1
2017-Sep-24 04:00N 49°11' W 122°55'3 5.9
2017-Sep-24 03:30N 49°09' W 122°59'3 6.4
2017-Sep-24 03:00N 49°08' W 123°04'3 6.2
2017-Sep-24 02:30N 49°07' W 123°08'3 5.8
2017-Sep-24 02:01N 49°07' W 123°12'2 4.9
2017-Sep-24 01:30N 49°07' W 123°16'3 5.3
2017-Sep-24 01:00N 49°06' W 123°19'3 5.6
2017-Sep-24 00:30N 49°08' W 123°22'3 6.4
2017-Sep-24 00:00N 49°11' W 123°25'3 6.6
2017-Sep-23 23:30N 49°13' W 123°29'3 6.1
2017-Sep-23 23:00N 49°15' W 123°32'3 5.9
2017-Sep-23 22:30N 49°17' W 123°35'3 6.3
2017-Sep-23 22:00N 49°20' W 123°38'3 5.8
2017-Sep-23 21:30N 49°22' W 123°40'3 5.9
2017-Sep-23 21:00N 49°25' W 123°43'3 6.0
2017-Sep-23 20:30N 49°27' W 123°45'1 1.5
2017-Sep-23 20:00N 49°28' W 123°45'38 0.9
2017-Sep-22 02:00N 49°13' W 122°51'1 2.2
2017-Sep-22 01:30N 49°13' W 122°50'3 6.0
2017-Sep-22 01:00N 49°12' W 122°54'0 0.0
2017-Sep-22 00:30N 49°12' W 122°54'2 5.0
2017-Sep-22 00:00N 49°11' W 122°58'1 2.9
2017-Sep-21 23:30N 49°12' W 122°55'1 1.8
2017-Sep-21 23:00N 49°11' W 122°55'0 0.0
2017-Sep-21 22:30N 49°11' W 122°55'1 2.5
2017-Sep-21 22:01N 49°12' W 122°56'3 5.0
2017-Sep-21 21:30N 49°12' W 123°00'3 5.7
2017-Sep-21 21:00N 49°12' W 123°04'2 4.7
2017-Sep-21 20:30N 49°12' W 123°08'0 0.2
2017-Sep-21 20:00N 49°12' W 123°08'0 0.1
2017-Sep-21 19:30N 49°12' W 123°08'0 0.0
2017-Sep-21 19:00N 49°12' W 123°08'0 0.1
2017-Sep-21 18:30N 49°12' W 123°08'0 0.0
2017-Sep-21 17:59N 49°12' W 123°08'0 0.0
2017-Sep-21 17:30N 49°12' W 123°08'  

Dump ship's entire track history